createdAt,value
2018-10-19T07:47:39.469Z,19.67
2018-10-19T07:50:07.989Z,20.83
2018-10-19T07:52:36.437Z,20.60
2018-10-19T07:55:05.310Z,21.07
2018-10-19T07:57:33.497Z,18.97
2018-10-19T08:00:01.677Z,19.83
2018-10-19T08:02:29.858Z,20.23
2018-10-19T08:04:58.077Z,19.73
2018-10-19T08:07:26.244Z,20.23
2018-10-19T08:09:54.430Z,22.37
2018-10-19T08:12:22.619Z,21.37
2018-10-19T08:14:50.820Z,21.00
2018-10-19T08:17:19.003Z,20.83
2018-10-19T08:19:47.165Z,20.70
2018-10-19T08:22:15.351Z,20.27
2018-10-19T08:24:43.506Z,17.90
2018-10-19T08:27:11.747Z,18.80
2018-10-19T08:29:39.921Z,18.97
2018-10-19T08:32:08.947Z,18.57
2018-10-19T08:34:37.038Z,21.37
2018-10-19T08:37:05.506Z,20.73
2018-10-19T08:39:33.676Z,18.20
2018-10-19T08:42:01.845Z,18.30
2018-10-19T08:44:30.010Z,18.10
2018-10-19T08:46:58.231Z,18.07
2018-10-19T08:49:26.353Z,17.90
2018-10-19T08:51:54.517Z,17.10
2018-10-19T08:54:22.715Z,18.43
2018-10-19T08:56:50.908Z,17.73
2018-10-19T08:59:19.092Z,16.77
2018-10-19T09:01:47.233Z,15.17
2018-10-19T09:04:15.504Z,16.27
2018-10-19T09:06:43.557Z,14.90
2018-10-19T09:09:11.973Z,14.03
2018-10-19T09:11:40.568Z,13.50
2018-10-19T09:14:20.194Z,14.47
2018-10-19T09:16:48.884Z,13.80
2018-10-19T09:19:17.201Z,13.17
2018-10-19T09:21:45.356Z,12.87
2018-10-19T09:24:13.621Z,12.53
2018-10-19T09:26:43.038Z,12.43
2018-10-19T09:29:11.464Z,13.07
2018-10-19T09:31:39.521Z,13.80
2018-10-19T09:34:07.693Z,14.67
2018-10-19T09:36:35.984Z,13.97
2018-10-19T09:39:05.758Z,12.63
2018-10-19T09:41:33.877Z,13.10
2018-10-19T09:44:02.067Z,14.00
2018-10-19T09:46:30.265Z,12.47
2018-10-19T09:48:58.434Z,13.27
2018-10-19T09:51:26.620Z,13.10
2018-10-19T09:53:54.793Z,12.73
2018-10-19T09:56:22.982Z,12.13
2018-10-19T09:58:51.138Z,11.80
2018-10-19T10:01:24.837Z,13.07
2018-10-19T10:03:53.034Z,13.83
2018-10-19T10:06:21.253Z,11.60
2018-10-19T10:08:49.528Z,12.30
2018-10-19T10:11:17.721Z,14.57
2018-10-19T10:13:45.929Z,12.90
2018-10-19T10:16:14.078Z,13.50
2018-10-19T10:18:42.233Z,15.23
2018-10-19T10:21:10.400Z,14.70
2018-10-19T10:23:38.584Z,15.60
2018-10-19T10:26:06.785Z,16.40
2018-10-19T10:28:34.951Z,14.90
2018-10-19T10:31:03.167Z,13.80
2018-10-19T10:33:31.294Z,14.20
2018-10-19T10:35:59.795Z,13.50
2018-10-19T10:38:27.944Z,14.10
2018-10-19T10:40:56.117Z,15.40
2018-10-19T10:43:24.310Z,15.80
2018-10-19T10:45:52.498Z,16.60
2018-10-19T10:48:20.681Z,15.03
2018-10-19T10:50:48.871Z,15.73
2018-10-19T10:53:17.170Z,15.03
2018-10-19T10:55:45.321Z,13.73
2018-10-19T10:58:13.568Z,13.60
2018-10-19T11:00:41.684Z,16.00
2018-10-19T11:03:09.894Z,15.27
2018-10-19T11:05:38.089Z,15.63
2018-10-19T11:08:06.493Z,15.30
2018-10-19T11:10:34.653Z,16.10
2018-10-19T11:13:02.841Z,15.33
2018-10-19T11:15:30.997Z,15.13
2018-10-19T11:17:59.257Z,16.50
2018-10-19T11:20:27.413Z,15.27
2018-10-19T11:22:55.577Z,14.80
2018-10-19T11:25:23.749Z,14.70
2018-10-19T11:27:51.949Z,16.30
2018-10-19T11:30:20.132Z,15.30
2018-10-19T11:32:48.338Z,16.00
2018-10-19T11:35:16.524Z,14.33
2018-10-19T11:37:44.692Z,15.30
2018-10-19T11:40:25.925Z,13.10
2018-10-19T11:42:55.108Z,15.30
2018-10-19T11:45:24.138Z,15.27
2018-10-19T11:47:52.325Z,14.57
2018-10-19T11:50:20.520Z,15.53
2018-10-19T11:52:49.327Z,15.83
2018-10-19T11:55:17.491Z,14.50
2018-10-19T11:57:45.832Z,14.50
2018-10-19T12:00:14.006Z,14.13
2018-10-19T12:02:42.183Z,16.03
2018-10-19T12:05:10.424Z,15.00
2018-10-19T12:07:39.145Z,14.80
2018-10-19T12:10:08.582Z,15.83
2018-10-19T12:12:37.256Z,15.03
2018-10-19T12:15:06.326Z,14.70
2018-10-19T12:17:34.424Z,15.03
2018-10-19T12:20:02.629Z,14.73
2018-10-19T12:22:30.795Z,15.50
2018-10-19T12:24:58.959Z,15.83
2018-10-19T12:27:27.125Z,15.60
2018-10-19T12:29:55.272Z,14.70
2018-10-19T12:32:23.459Z,15.00
2018-10-19T12:34:52.657Z,14.97
2018-10-19T12:37:20.864Z,16.00
2018-10-19T12:39:49.446Z,13.23
2018-10-19T12:42:17.624Z,15.00
2018-10-19T12:44:46.932Z,13.10
2018-10-19T12:47:50.285Z,13.50
2018-10-19T12:50:18.518Z,13.40
2018-10-19T12:52:46.681Z,14.83
2018-10-19T12:55:14.923Z,13.70
2018-10-19T12:57:43.053Z,13.53
2018-10-19T13:00:11.233Z,13.23
2018-10-19T13:02:39.399Z,14.20
2018-10-19T13:05:07.588Z,13.30
2018-10-19T13:07:36.026Z,14.40
2018-10-19T13:10:04.239Z,13.47
2018-10-19T13:12:32.442Z,14.23
2018-10-19T13:15:00.787Z,14.40
2018-10-19T13:17:28.794Z,14.23
2018-10-19T13:19:57.049Z,14.30
2018-10-19T13:22:25.281Z,14.00
2018-10-19T13:24:53.464Z,13.97
2018-10-19T13:27:22.378Z,13.83
2018-10-19T13:29:50.588Z,12.30
2018-10-19T13:32:18.789Z,14.60
2018-10-19T13:34:46.957Z,13.90
2018-10-19T13:37:15.153Z,13.97
2018-10-19T13:39:43.317Z,13.40
2018-10-19T13:42:11.492Z,12.83
2018-10-19T13:44:39.664Z,12.93
2018-10-19T13:47:07.894Z,13.20
2018-10-19T13:49:36.029Z,13.60
2018-10-19T13:52:04.228Z,13.67
2018-10-19T13:54:32.462Z,13.70
2018-10-19T13:57:00.866Z,12.37
2018-10-19T13:59:29.158Z,13.90
2018-10-19T14:01:57.345Z,11.57
2018-10-19T14:04:25.538Z,12.33
2018-10-19T14:06:53.839Z,12.57
2018-10-19T14:09:21.997Z,13.20
2018-10-19T14:11:50.218Z,13.43
2018-10-19T14:14:18.449Z,13.43
2018-10-19T14:16:46.927Z,12.77
2018-10-19T14:19:15.164Z,13.70
2018-10-19T14:21:43.317Z,12.93
2018-10-19T14:24:11.515Z,13.83
2018-10-19T14:26:39.707Z,13.80
2018-10-19T14:29:07.952Z,13.93
2018-10-19T14:31:36.062Z,14.17
2018-10-19T14:34:04.348Z,14.43
2018-10-19T14:36:32.526Z,14.47
2018-10-19T14:39:00.804Z,14.57
2018-10-19T14:41:28.926Z,14.67
2018-10-19T14:43:57.161Z,16.07
2018-10-19T14:46:25.345Z,15.30
2018-10-19T14:48:53.648Z,15.33
2018-10-19T14:51:21.793Z,14.90
2018-10-19T14:53:50.009Z,14.60
2018-10-19T14:56:18.191Z,14.57
2018-10-19T14:58:46.367Z,14.90
2018-10-19T15:01:14.529Z,15.73
2018-10-19T15:03:42.761Z,15.93
2018-10-19T15:06:10.915Z,14.80
2018-10-19T15:08:39.113Z,15.47
2018-10-19T15:11:07.480Z,16.73
2018-10-19T15:13:35.562Z,16.10
2018-10-19T15:16:03.750Z,17.40
2018-10-19T15:18:32.029Z,16.57
2018-10-19T15:21:00.235Z,15.90
2018-10-19T15:23:28.381Z,16.57
2018-10-19T15:25:57.020Z,17.30
2018-10-19T15:28:25.205Z,15.23
2018-10-19T15:30:54.033Z,15.30
2018-10-19T15:33:22.309Z,12.80
2018-10-19T15:35:50.560Z,13.50
2018-10-19T15:38:18.757Z,14.90
2018-10-19T15:40:47.341Z,12.83
2018-10-19T15:43:15.540Z,13.03
2018-10-19T15:45:43.706Z,15.33
2018-10-19T15:48:12.078Z,13.23
2018-10-19T15:50:40.109Z,14.77
2018-10-19T15:53:08.293Z,12.37
2018-10-19T15:55:36.485Z,13.60
2018-10-19T15:58:04.759Z,13.87
2018-10-19T16:00:33.031Z,14.20
2018-10-19T16:03:01.190Z,13.03
2018-10-19T16:05:29.346Z,13.03
2018-10-19T16:07:57.545Z,16.70
2018-10-19T16:10:25.853Z,14.83
2018-10-19T16:12:54.034Z,14.73
2018-10-19T16:15:22.229Z,14.37
2018-10-19T16:17:50.489Z,13.00
2018-10-19T16:20:19.025Z,13.57
2018-10-19T16:22:47.205Z,16.40
2018-10-19T16:25:15.404Z,14.63
2018-10-19T16:27:43.653Z,15.00
2018-10-19T16:30:11.927Z,16.93
2018-10-19T16:32:40.426Z,15.90
2018-10-19T16:35:09.526Z,15.70
2018-10-19T16:37:38.234Z,15.23
2018-10-19T16:40:06.585Z,16.30
2018-10-19T16:42:34.844Z,14.70
2018-10-19T16:45:03.333Z,15.77
2018-10-19T16:47:32.738Z,15.77
2018-10-19T16:50:01.107Z,17.20
2018-10-19T16:52:29.329Z,17.83
2018-10-19T16:54:57.636Z,16.33
2018-10-19T16:57:26.037Z,20.30
2018-10-19T16:59:54.291Z,16.83
2018-10-19T17:02:23.339Z,19.00
2018-10-19T17:04:51.682Z,17.77
2018-10-19T17:07:19.820Z,17.57
2018-10-19T17:09:48.016Z,19.63
2018-10-19T17:12:16.218Z,19.80
2018-10-19T17:14:44.735Z,19.07
2018-10-19T17:17:12.929Z,20.60
2018-10-19T17:19:41.121Z,20.17
2018-10-19T17:22:09.340Z,20.87
2018-10-19T17:24:37.624Z,17.63
2018-10-19T17:27:06.092Z,20.50
2018-10-19T17:29:34.277Z,19.03
2018-10-19T17:32:02.497Z,17.80
2018-10-19T17:34:30.729Z,19.73
2018-10-19T17:36:59.072Z,18.23
2018-10-19T17:39:27.490Z,17.47
2018-10-19T17:41:55.840Z,19.80
2018-10-19T17:44:24.033Z,21.23
2018-10-19T17:46:52.252Z,20.07
2018-10-19T17:49:20.448Z,19.10
2018-10-19T17:51:48.668Z,21.80
2018-10-19T17:54:16.924Z,18.67
2018-10-19T17:56:45.150Z,18.97
2018-10-19T17:59:13.393Z,19.00
2018-10-19T18:01:41.594Z,18.63
2018-10-19T18:04:09.795Z,19.67
2018-10-19T18:06:38.066Z,18.80
2018-10-19T18:09:08.831Z,19.17
2018-10-19T18:11:37.105Z,18.10
2018-10-19T18:14:05.409Z,21.67
2018-10-19T18:16:33.686Z,20.17
2018-10-19T18:19:01.856Z,17.70
2018-10-19T18:21:30.141Z,22.00
2018-10-19T18:23:58.268Z,22.63
2018-10-19T18:26:26.546Z,22.50
2018-10-19T18:28:54.795Z,21.27
2018-10-19T18:31:23.160Z,22.07
2018-10-19T18:33:51.437Z,20.60
2018-10-19T18:36:20.745Z,19.67
2018-10-19T18:38:49.002Z,21.10
2018-10-19T18:41:17.274Z,20.00
2018-10-19T18:43:45.424Z,21.90
2018-10-19T18:46:13.619Z,21.60
2018-10-19T18:48:41.800Z,24.00
2018-10-19T18:51:09.995Z,26.30
2018-10-19T18:53:38.266Z,20.87
2018-10-19T18:56:06.485Z,19.80
2018-10-19T18:58:34.651Z,18.80
2018-10-19T19:01:02.882Z,17.80
2018-10-19T19:03:31.081Z,19.83
2018-10-19T19:05:59.358Z,17.10
2018-10-19T19:08:27.541Z,18.10
2018-10-19T19:10:55.807Z,19.67
2018-10-19T19:13:29.793Z,17.17
2018-10-19T19:15:58.476Z,18.13
2018-10-19T19:18:26.815Z,18.47
2018-10-19T19:20:55.061Z,16.73
2018-10-19T19:23:23.273Z,16.07
2018-10-19T19:25:56.946Z,20.20
2018-10-19T19:28:25.095Z,18.40
2018-10-19T19:30:53.316Z,18.00
2018-10-19T19:33:27.002Z,18.97
2018-10-19T19:35:55.206Z,18.97
2018-10-19T19:38:23.392Z,18.67
2018-10-19T19:40:56.917Z,22.13
2018-10-19T19:43:25.099Z,21.67
2018-10-19T19:45:53.429Z,21.50
2018-10-19T19:48:27.133Z,18.33
2018-10-19T19:50:55.494Z,20.57
2018-10-19T19:53:23.779Z,19.83
2018-10-19T19:55:52.003Z,21.07
2018-10-19T19:58:20.224Z,18.50
2018-10-19T20:00:48.454Z,19.77
2018-10-19T20:03:16.700Z,20.77
2018-10-19T20:05:44.917Z,21.60
2018-10-19T20:08:13.234Z,22.50
2018-10-19T20:10:41.351Z,22.27
2018-10-19T20:13:09.631Z,19.83
2018-10-19T20:15:37.817Z,19.80
2018-10-19T20:18:06.150Z,18.40
2018-10-19T20:20:34.308Z,49.80
2018-10-19T20:23:02.517Z,25.50
2018-10-19T20:25:30.776Z,21.43
2018-10-19T20:27:59.127Z,20.83
2018-10-19T20:30:27.393Z,21.43
2018-10-19T20:32:55.597Z,20.80
2018-10-19T20:35:23.813Z,20.53
2018-10-19T20:37:52.008Z,20.73
2018-10-19T20:40:20.221Z,19.77
2018-10-19T20:42:48.423Z,20.50
2018-10-19T20:45:16.626Z,19.17
2018-10-19T20:47:44.805Z,22.80
2018-10-19T20:50:13.033Z,22.27
2018-10-19T20:52:41.170Z,22.23
2018-10-19T20:55:09.561Z,23.53
2018-10-19T20:57:37.812Z,22.00
2018-10-19T21:00:06.794Z,25.40
2018-10-19T21:02:35.014Z,24.23
2018-10-19T21:05:03.240Z,22.10
2018-10-19T21:07:31.642Z,22.67
2018-10-19T21:09:59.609Z,21.57
2018-10-19T21:12:27.789Z,21.90
2018-10-19T21:14:55.988Z,22.60
2018-10-19T21:17:24.633Z,23.10
2018-10-19T21:19:52.878Z,24.10
2018-10-19T21:22:21.083Z,20.93
2018-10-19T21:24:49.281Z,24.83
2018-10-19T21:27:17.473Z,25.23
2018-10-19T21:29:45.782Z,23.97
2018-10-19T21:32:13.963Z,23.17
2018-10-19T21:34:42.100Z,26.20
2018-10-19T21:37:10.285Z,24.50
2018-10-19T21:39:38.454Z,25.60
2018-10-19T21:42:06.635Z,25.13
2018-10-19T21:44:34.819Z,22.30
2018-10-19T21:47:02.977Z,24.10
2018-10-19T21:49:31.130Z,21.57
2018-10-19T21:51:59.308Z,22.67
2018-10-19T21:54:27.509Z,22.63
2018-10-19T21:56:55.711Z,24.03
2018-10-19T21:59:23.869Z,22.30
